createdAt,value
2022-12-06T00:02:27.606Z,77.11
2022-12-06T00:05:33.754Z,76.23
2022-12-06T00:08:36.958Z,76.89
2022-12-06T00:11:39.727Z,76.82
2022-12-06T00:14:42.656Z,76.28
2022-12-06T00:17:46.750Z,76.83
2022-12-06T00:20:49.467Z,76.46
2022-12-06T00:23:53.556Z,76.97
2022-12-06T00:26:56.376Z,76.90
2022-12-06T00:29:59.314Z,76.67
2022-12-06T00:33:03.739Z,76.61
2022-12-06T00:36:08.394Z,77.29
2022-12-06T00:39:13.428Z,76.83
2022-12-06T00:42:16.514Z,77.84
2022-12-06T00:45:19.213Z,78.34
2022-12-06T00:48:24.182Z,79.31
2022-12-06T00:51:28.659Z,80.36
2022-12-06T00:54:31.640Z,80.74
2022-12-06T00:57:35.057Z,80.35
2022-12-06T01:00:37.773Z,80.50
2022-12-06T01:03:42.547Z,79.68
2022-12-06T01:06:45.260Z,79.13
2022-12-06T01:09:48.051Z,78.69
2022-12-06T01:12:50.652Z,78.15
2022-12-06T01:15:54.263Z,78.53
2022-12-06T01:19:01.165Z,78.87
2022-12-06T01:22:03.797Z,78.56
2022-12-06T01:25:07.263Z,79.11
2022-12-06T01:28:09.943Z,78.79
2022-12-06T01:31:13.471Z,78.95
2022-12-06T01:34:18.859Z,78.80
2022-12-06T01:37:22.013Z,78.59
2022-12-06T01:40:24.837Z,78.16
2022-12-06T01:43:35.396Z,78.33
2022-12-06T01:46:42.100Z,78.11
2022-12-06T01:49:48.568Z,77.57
2022-12-06T01:52:55.099Z,78.27
2022-12-06T01:55:58.111Z,77.68
2022-12-06T01:59:01.427Z,78.02
2022-12-06T02:02:04.472Z,77.67
2022-12-06T02:05:09.603Z,77.79
2022-12-06T02:08:13.031Z,77.66
2022-12-06T02:11:16.077Z,77.57
2022-12-06T02:14:21.319Z,77.31
2022-12-06T02:17:35.848Z,77.27
2022-12-06T02:20:43.133Z,77.45
2022-12-06T02:24:15.691Z,77.72
2022-12-06T02:27:33.528Z,77.39
2022-12-06T02:30:41.476Z,77.31
2022-12-06T02:33:48.548Z,77.79
2022-12-06T02:36:57.014Z,77.92
2022-12-06T02:40:03.920Z,77.40
2022-12-06T02:43:10.034Z,77.48
2022-12-06T02:46:15.414Z,77.61
2022-12-06T02:49:19.343Z,77.46
2022-12-06T02:52:25.335Z,77.35
2022-12-06T02:55:29.803Z,77.65
2022-12-06T02:58:35.935Z,77.22
2022-12-06T03:01:43.002Z,77.76
2022-12-06T03:04:57.288Z,77.49
2022-12-06T03:08:02.288Z,77.24
2022-12-06T03:11:05.694Z,76.89
2022-12-06T03:14:14.869Z,76.57
2022-12-06T03:17:24.419Z,76.43
2022-12-06T03:20:29.371Z,76.44
2022-12-06T03:23:35.572Z,76.67
2022-12-06T03:26:39.883Z,76.38
2022-12-06T03:29:47.770Z,76.82
2022-12-06T03:32:52.717Z,76.86
2022-12-06T03:35:56.780Z,76.55
2022-12-06T03:39:01.757Z,76.75
2022-12-06T03:42:04.714Z,76.42
2022-12-06T03:45:08.867Z,76.52
2022-12-06T03:48:14.601Z,76.52
2022-12-06T03:51:19.891Z,76.56
2022-12-06T03:54:22.617Z,76.36
2022-12-06T03:57:25.452Z,76.51
2022-12-06T04:00:28.359Z,76.28
2022-12-06T04:03:32.582Z,76.81
2022-12-06T04:06:36.152Z,76.79
2022-12-06T04:09:56.558Z,76.75
2022-12-06T04:13:01.997Z,76.91
2022-12-06T04:16:24.958Z,76.97
2022-12-06T04:19:28.343Z,76.99
2022-12-06T04:22:48.976Z,77.07
2022-12-06T04:25:51.971Z,77.30
2022-12-06T04:29:13.292Z,77.42
2022-12-06T04:32:33.429Z,77.46
2022-12-06T04:35:54.875Z,77.49
2022-12-06T04:38:57.628Z,77.43
2022-12-06T04:42:19.582Z,78.11
2022-12-06T04:45:22.287Z,78.68
2022-12-06T04:48:25.399Z,78.28
2022-12-06T04:51:30.093Z,78.04
2022-12-06T04:54:32.818Z,77.82
2022-12-06T04:57:35.570Z,77.99
2022-12-06T05:00:38.314Z,77.81
2022-12-06T05:03:44.140Z,77.58
2022-12-06T05:06:48.753Z,77.30
2022-12-06T05:09:51.301Z,76.82
2022-12-06T05:12:53.880Z,77.21
2022-12-06T05:15:57.883Z,76.95
2022-12-06T05:19:00.506Z,76.67
2022-12-06T05:22:05.118Z,77.32
2022-12-06T05:25:08.235Z,76.52
2022-12-06T05:28:11.231Z,76.46
2022-12-06T05:31:14.297Z,76.62
2022-12-06T05:34:17.032Z,76.91
2022-12-06T05:37:21.110Z,76.24
2022-12-06T05:40:24.159Z,76.66
2022-12-06T05:43:27.085Z,76.74
2022-12-06T05:46:29.853Z,76.47
2022-12-06T05:49:32.932Z,76.48
2022-12-06T05:52:37.021Z,76.75
2022-12-06T05:55:39.923Z,76.43
2022-12-06T05:58:42.632Z,75.49
2022-12-06T06:01:45.478Z,75.96
2022-12-06T06:04:48.599Z,75.64
2022-12-06T06:07:52.888Z,75.95
2022-12-06T06:10:55.938Z,73.82
2022-12-06T06:13:59.463Z,72.54
2022-12-06T06:17:02.152Z,70.57
2022-12-06T06:20:06.572Z,70.61
2022-12-06T06:23:10.715Z,71.29
2022-12-06T06:26:13.907Z,72.65
2022-12-06T06:29:16.564Z,72.35
2022-12-06T06:32:19.423Z,73.09
2022-12-06T06:35:22.237Z,73.92
2022-12-06T06:38:26.195Z,74.55
2022-12-06T06:41:28.943Z,73.98
2022-12-06T06:44:32.827Z,74.13
2022-12-06T06:47:36.557Z,74.42
2022-12-06T06:50:39.159Z,74.34
2022-12-06T06:53:43.218Z,74.62
2022-12-06T06:56:45.873Z,74.60
2022-12-06T06:59:48.734Z,75.03
2022-12-06T07:02:51.658Z,74.92
2022-12-06T07:05:56.797Z,75.33
2022-12-06T07:09:00.902Z,74.91
2022-12-06T07:12:03.812Z,74.75
2022-12-06T07:15:07.700Z,74.53
2022-12-06T07:18:10.628Z,74.78
2022-12-06T07:21:14.938Z,74.73
2022-12-06T07:24:18.997Z,74.70
2022-12-06T07:27:21.763Z,74.42
2022-12-06T07:30:27.504Z,74.17
2022-12-06T07:33:30.518Z,74.24
2022-12-06T07:36:33.811Z,74.12
2022-12-06T07:39:38.330Z,74.05
2022-12-06T07:42:58.752Z,73.26
2022-12-06T07:46:01.442Z,73.15
2022-12-06T07:49:04.289Z,72.89
2022-12-06T07:52:07.116Z,72.76
2022-12-06T07:55:12.693Z,72.65
2022-12-06T07:58:15.604Z,71.74
2022-12-06T08:01:18.541Z,71.71
2022-12-06T08:04:22.073Z,71.12
2022-12-06T08:07:25.330Z,71.48
2022-12-06T08:10:29.411Z,71.42
2022-12-06T08:13:32.419Z,70.46
2022-12-06T08:16:35.969Z,70.30
2022-12-06T08:19:39.353Z,69.08
2022-12-06T08:22:42.152Z,69.03
2022-12-06T08:25:46.427Z,67.39
2022-12-06T08:28:49.422Z,67.64
2022-12-06T08:31:52.697Z,67.39
2022-12-06T08:34:55.828Z,66.67
2022-12-06T08:37:58.494Z,65.64
2022-12-06T08:41:02.867Z,66.02
2022-12-06T08:44:06.594Z,66.13
2022-12-06T08:47:09.184Z,66.40
2022-12-06T08:50:12.701Z,66.58
2022-12-06T08:53:15.724Z,67.15
2022-12-06T08:56:19.909Z,66.08
2022-12-06T08:59:23.296Z,65.71
2022-12-06T09:02:26.038Z,66.88
2022-12-06T09:05:29.028Z,66.68
2022-12-06T09:08:31.684Z,67.56
2022-12-06T09:11:35.803Z,67.20
2022-12-06T09:14:38.680Z,68.43
2022-12-06T09:17:42.178Z,67.78
2022-12-06T09:20:44.788Z,67.19
2022-12-06T09:23:47.698Z,67.37
2022-12-06T09:26:51.867Z,68.18
2022-12-06T09:29:55.310Z,67.60
2022-12-06T09:32:58.319Z,67.73
2022-12-06T09:36:04.045Z,67.11
2022-12-06T09:39:09.617Z,66.96
2022-12-06T09:42:34.695Z,66.58
2022-12-06T09:45:49.626Z,66.38
2022-12-06T09:49:20.486Z,66.57
2022-12-06T09:52:40.694Z,67.43
2022-12-06T09:55:52.019Z,67.44
2022-12-06T09:59:07.458Z,67.12
2022-12-06T10:02:25.285Z,67.64
2022-12-06T10:05:44.428Z,67.77
2022-12-06T10:09:01.841Z,68.22
2022-12-06T10:12:13.413Z,67.50
2022-12-06T10:15:27.978Z,67.60
2022-12-06T10:18:46.432Z,67.11
2022-12-06T10:21:56.604Z,67.64
2022-12-06T10:25:05.632Z,67.27
2022-12-06T10:28:13.108Z,67.01
2022-12-06T10:31:29.373Z,66.59
2022-12-06T10:34:47.436Z,65.67
2022-12-06T10:38:07.911Z,65.72
2022-12-06T10:41:16.306Z,67.23
2022-12-06T10:44:24.131Z,66.36
2022-12-06T10:47:31.820Z,67.60
2022-12-06T10:50:37.414Z,67.60
2022-12-06T10:53:44.698Z,67.90
2022-12-06T10:56:50.743Z,68.23
2022-12-06T11:00:03.105Z,69.24
2022-12-06T11:03:12.239Z,71.04
2022-12-06T11:06:18.615Z,71.76
2022-12-06T11:09:27.087Z,69.96
2022-12-06T11:12:32.105Z,71.20
2022-12-06T11:15:37.758Z,69.99
2022-12-06T11:18:42.896Z,69.85
2022-12-06T11:21:51.352Z,70.01
2022-12-06T11:24:57.968Z,69.97
2022-12-06T11:28:06.227Z,70.83
2022-12-06T11:31:19.890Z,71.03
2022-12-06T11:34:29.000Z,71.16
2022-12-06T11:37:32.893Z,70.74
2022-12-06T11:40:38.874Z,72.31
2022-12-06T11:43:41.800Z,73.43
2022-12-06T11:46:44.790Z,72.31
2022-12-06T11:49:51.083Z,72.66
2022-12-06T11:52:58.256Z,72.38
2022-12-06T11:56:05.085Z,71.93
2022-12-06T11:59:24.670Z,72.83
2022-12-06T12:02:32.853Z,72.53
2022-12-06T12:05:39.907Z,73.88
2022-12-06T12:08:52.012Z,73.43
2022-12-06T12:11:56.357Z,74.26
2022-12-06T12:15:00.294Z,75.07
2022-12-06T12:18:04.649Z,73.13
2022-12-06T12:21:09.168Z,73.04
2022-12-06T12:28:26.134Z,73.29
2022-12-06T12:31:29.026Z,73.10
2022-12-06T12:34:32.482Z,73.12
2022-12-06T12:37:39.089Z,74.45
2022-12-06T12:40:43.721Z,75.10
2022-12-06T12:44:13.518Z,75.13
2022-12-06T12:47:20.004Z,75.09
2022-12-06T12:50:23.912Z,74.44
2022-12-06T12:53:31.778Z,74.13
2022-12-06T12:56:37.090Z,74.98
2022-12-06T12:59:41.516Z,75.64
2022-12-06T13:02:45.222Z,77.25
2022-12-06T13:05:48.525Z,77.26
2022-12-06T13:08:53.288Z,77.05
2022-12-06T13:11:59.488Z,76.80
2022-12-06T13:15:07.292Z,76.91
2022-12-06T13:18:14.322Z,76.20
2022-12-06T13:21:21.800Z,75.61
2022-12-06T13:24:30.186Z,75.88
2022-12-06T13:27:36.350Z,75.67
2022-12-06T13:30:41.148Z,76.07
2022-12-06T13:33:47.460Z,75.77
2022-12-06T13:36:52.214Z,76.41
2022-12-06T13:39:56.882Z,75.94
2022-12-06T13:43:00.346Z,75.53
2022-12-06T13:46:22.938Z,74.57
2022-12-06T13:49:27.070Z,73.87
2022-12-06T13:53:03.533Z,74.20
2022-12-06T13:56:29.041Z,75.14
2022-12-06T13:59:38.750Z,73.56
2022-12-06T14:02:46.520Z,72.49
2022-12-06T14:06:07.490Z,71.75
2022-12-06T14:09:15.258Z,72.38
2022-12-06T14:12:22.662Z,71.25
2022-12-06T14:15:25.394Z,70.92
2022-12-06T14:18:29.934Z,70.67
2022-12-06T14:21:37.514Z,70.88
2022-12-06T14:24:42.118Z,71.11
2022-12-06T14:27:48.440Z,70.70
2022-12-06T14:30:51.519Z,70.53
2022-12-06T14:33:55.466Z,69.91
2022-12-06T14:36:58.777Z,69.76
2022-12-06T14:40:22.757Z,69.13
2022-12-06T14:43:27.239Z,70.36
2022-12-06T14:46:30.137Z,69.95
2022-12-06T14:49:53.068Z,70.56
2022-12-06T14:52:58.416Z,70.73
2022-12-06T14:56:03.537Z,71.41
2022-12-06T14:59:12.818Z,71.35
2022-12-06T15:02:23.653Z,70.98
2022-12-06T15:05:34.512Z,70.50
2022-12-06T15:08:38.779Z,70.79
2022-12-06T15:12:00.337Z,70.38
2022-12-06T15:15:04.761Z,70.20
2022-12-06T15:18:14.207Z,70.29
2022-12-06T15:21:18.874Z,71.63
2022-12-06T15:24:23.774Z,70.76
2022-12-06T15:27:27.919Z,70.64
2022-12-06T15:30:31.928Z,70.82
2022-12-06T15:33:34.983Z,70.11
2022-12-06T15:36:37.780Z,71.19
2022-12-06T15:39:41.283Z,71.01
2022-12-06T15:42:44.047Z,71.34
2022-12-06T15:45:48.378Z,70.89
2022-12-06T15:48:52.155Z,71.23
2022-12-06T15:51:54.901Z,71.14
2022-12-06T15:54:57.721Z,71.23
2022-12-06T15:58:00.388Z,70.44
2022-12-06T16:01:04.361Z,70.87
2022-12-06T16:04:07.913Z,71.22
2022-12-06T16:07:10.746Z,70.61
2022-12-06T16:10:16.622Z,70.64
2022-12-06T16:13:23.737Z,70.68
2022-12-06T16:16:27.868Z,71.10
2022-12-06T16:19:50.681Z,71.00
2022-12-06T16:23:16.223Z,71.33
2022-12-06T16:26:19.208Z,70.97
2022-12-06T16:29:25.023Z,70.91
2022-12-06T16:32:29.304Z,71.14
2022-12-06T16:35:32.401Z,71.65
2022-12-06T16:38:35.286Z,71.51
2022-12-06T16:41:37.902Z,71.23
2022-12-06T16:44:51.287Z,71.34
2022-12-06T16:47:55.704Z,71.35
2022-12-06T16:50:58.662Z,70.29
2022-12-06T16:54:02.411Z,71.40
2022-12-06T16:57:05.404Z,70.61
2022-12-06T17:00:09.801Z,71.21
2022-12-06T17:03:14.167Z,70.84
2022-12-06T17:06:17.070Z,70.64
2022-12-06T17:09:20.949Z,71.18
2022-12-06T17:12:23.940Z,70.99
2022-12-06T17:15:26.619Z,70.74
2022-12-06T17:18:30.686Z,70.81
2022-12-06T17:21:34.170Z,70.43
2022-12-06T17:24:36.972Z,71.05
2022-12-06T17:27:40.174Z,70.25
2022-12-06T17:30:47.777Z,70.09
2022-12-06T17:33:55.220Z,70.37
2022-12-06T17:36:58.888Z,70.38
2022-12-06T17:40:01.565Z,71.11
2022-12-06T17:43:05.521Z,70.63
2022-12-06T17:46:08.896Z,72.48
2022-12-06T17:49:15.227Z,71.23
2022-12-06T17:52:18.546Z,71.46
2022-12-06T17:55:21.569Z,71.59
2022-12-06T17:58:24.733Z,70.74
2022-12-06T18:01:50.852Z,70.92
2022-12-06T18:04:53.983Z,70.97
2022-12-06T18:07:56.800Z,70.62
2022-12-06T18:10:59.816Z,70.99
2022-12-06T18:14:03.891Z,70.91
2022-12-06T18:17:07.699Z,71.34
2022-12-06T18:20:15.682Z,70.89
2022-12-06T18:23:18.877Z,70.58
2022-12-06T18:26:23.074Z,70.95
2022-12-06T18:29:26.790Z,71.20
2022-12-06T18:32:29.634Z,71.45
2022-12-06T18:35:36.189Z,71.37
2022-12-06T18:38:39.303Z,71.35
2022-12-06T18:41:42.750Z,71.90
2022-12-06T18:44:45.943Z,71.09
2022-12-06T18:47:49.628Z,71.38
2022-12-06T18:50:54.185Z,71.08
2022-12-06T18:53:58.654Z,70.57
2022-12-06T18:57:01.736Z,71.54
2022-12-06T19:00:05.523Z,71.11
2022-12-06T19:03:08.598Z,71.13
2022-12-06T19:06:14.779Z,71.89
2022-12-06T19:09:17.480Z,71.42
2022-12-06T19:12:20.362Z,71.43
2022-12-06T19:15:23.199Z,71.36
2022-12-06T19:18:25.736Z,71.46
2022-12-06T19:21:32.191Z,70.74
2022-12-06T19:24:34.864Z,71.16
2022-12-06T19:27:37.453Z,71.62
2022-12-06T19:30:40.291Z,71.54
2022-12-06T19:33:44.889Z,71.73
2022-12-06T19:36:50.000Z,72.82
2022-12-06T19:39:52.894Z,72.03
2022-12-06T19:43:12.918Z,71.88
2022-12-06T19:46:17.118Z,71.98
2022-12-06T19:49:22.482Z,72.28
2022-12-06T19:52:30.829Z,72.29
2022-12-06T19:55:33.829Z,72.49
2022-12-06T19:58:36.693Z,72.51
2022-12-06T20:01:40.220Z,72.89
2022-12-06T20:04:44.069Z,72.54
2022-12-06T20:07:47.973Z,72.71
2022-12-06T20:10:50.629Z,72.42
2022-12-06T20:13:53.262Z,73.40
2022-12-06T20:16:56.085Z,73.33
2022-12-06T20:20:01.579Z,72.60
2022-12-06T20:23:10.268Z,73.12
2022-12-06T20:26:17.046Z,72.62
2022-12-06T20:29:19.829Z,72.76
2022-12-06T20:32:22.363Z,72.43
2022-12-06T20:35:26.860Z,72.43
2022-12-06T20:38:31.125Z,72.91
2022-12-06T20:41:34.510Z,72.37
2022-12-06T20:44:37.463Z,72.81
2022-12-06T20:47:40.374Z,72.53
2022-12-06T20:50:43.370Z,72.80
2022-12-06T20:53:48.400Z,72.87
2022-12-06T20:56:53.284Z,72.61
2022-12-06T20:59:56.423Z,72.68
2022-12-06T21:02:59.335Z,73.79
2022-12-06T21:06:03.780Z,73.21
2022-12-06T21:09:08.381Z,73.45
2022-12-06T21:12:11.135Z,73.51
2022-12-06T21:15:14.097Z,72.92
2022-12-06T21:18:19.821Z,72.84
2022-12-06T21:21:23.938Z,73.39
2022-12-06T21:24:28.127Z,73.87
2022-12-06T21:27:30.914Z,73.06
2022-12-06T21:30:33.789Z,72.91
2022-12-06T21:33:36.619Z,72.40
2022-12-06T21:36:39.419Z,72.90
2022-12-06T21:39:46.334Z,72.71
2022-12-06T21:42:49.131Z,72.76
2022-12-06T21:45:51.825Z,72.33
2022-12-06T21:48:56.264Z,72.72
2022-12-06T21:52:04.571Z,72.46
2022-12-06T21:55:12.930Z,72.56
2022-12-06T21:58:15.634Z,73.20
2022-12-06T22:01:21.879Z,74.54
2022-12-06T22:04:24.873Z,74.91
2022-12-06T22:07:27.666Z,75.19
2022-12-06T22:10:31.716Z,75.27
2022-12-06T22:13:34.627Z,75.89
2022-12-06T22:16:37.320Z,75.08
2022-12-06T22:19:39.970Z,75.33
2022-12-06T22:22:42.853Z,75.16
2022-12-06T22:25:47.403Z,75.28
2022-12-06T22:28:50.518Z,75.14
2022-12-06T22:31:53.440Z,76.45
2022-12-06T22:34:56.227Z,75.85
2022-12-06T22:37:59.580Z,76.40
2022-12-06T22:41:04.191Z,75.99
2022-12-06T22:44:08.489Z,76.04
2022-12-06T22:47:11.226Z,76.03
2022-12-06T22:50:14.505Z,76.52
2022-12-06T22:53:17.989Z,76.30
2022-12-06T22:56:22.346Z,75.74
2022-12-06T22:59:25.187Z,76.18
2022-12-06T23:02:28.278Z,76.34
2022-12-06T23:05:30.854Z,76.63
2022-12-06T23:08:34.233Z,76.46
2022-12-06T23:11:38.603Z,75.83
2022-12-06T23:14:41.353Z,75.60
2022-12-06T23:17:44.044Z,76.03
2022-12-06T23:20:46.610Z,76.40
2022-12-06T23:23:52.065Z,76.92
2022-12-06T23:26:58.171Z,76.40
2022-12-06T23:30:01.521Z,76.61
2022-12-06T23:33:04.532Z,76.55
2022-12-06T23:36:09.425Z,76.86
2022-12-06T23:39:13.639Z,76.45
2022-12-06T23:42:17.757Z,75.66
2022-12-06T23:45:20.818Z,75.97
2022-12-06T23:48:23.751Z,76.23
2022-12-06T23:51:27.922Z,75.81
2022-12-06T23:54:30.666Z,75.77
2022-12-06T23:57:34.671Z,75.77
